Strona główna
METAR-TAF:

METAR-TAF

Lotnisko :

Tabatinga, Amazonas, Brazylia

Szerokość geograficzna: 03-40S, Długość geograficzna: 069-40W, wysokość: 85 m

Aktualna obserwacja pogody

Raport powstał 7 godziny i 48 minut temu, godzina 22:00 UTC
Wiatr 3 kt od południowo-południowy zachód
Temperatura 28°C
Wilgotność 74%
Ciśnienie 1011 hPa
Widzialność 10 km lub więcej
Mało chmury na wysokości 2500 ft

METAR: SBTT 272200Z 20003KT 9999 FEW025 28/23 Q1011

czas: 01:48 (05:48 UTC)

Prognoza

Raport powstał 2 godziny i 48 minut temu, godzina 03:00 UTC
Prognoza ważna od 28 godzina 06 UTC do 29 godzina 06 UTC
Wiatr 5 kt od zachód
Widzialność 10 km lub więcej
Brak chmur poniżej 1500 m i brak chmur cumulonimbus
Stopniowe zmiany
od 28 godzina 14 UTC do 28 godzina 16 UTC
Wiatr 5 kt od wschodnio-południowy wschód
Widzialność 10 km lub więcej
Rozproszone chmury na wysokości 2000 ft
Mało chmury na wysokości 2500 ft, Cumulusy wypiętrznone.

TAF: SBTT 280300Z 2806/2906 27005KT CAVOK TN21/2808Z TX29/2818Z BECMG 2814/2816 12005KT 9999 SCT020 FEW025TCU RMK PDX

Obserwacja i prognoza pogody dla ponad 4000 lotnisk (raport METAR i TAF).

Dostępne stacje oznaczono żółtymi i czerwonymi punktami na mapie.

Najedź kursorem aby zobaczyć nazwę stacji.

Kliknij aby zobaczyć obserwacje i prognozy pogody.

Aby zmienić mapę: kliknij na zielony przycisk z czarnym krzyżykiem, aby powiększyć; na zielony przycisk z myślnikiem, aby pomniejszyć; na zielone strzałki, aby przejść do map sąsiednich.


METAR-TAF: